Time;durP1;ratioP1;P1;durP2;ratioP2;P2;SDS_P1;SDS_P2;PMS_P1;PMS_P2;Temp;Humidity;BMP_temperature;BMP_pressure;BME280_temperature;BME280_humidity;BME280_pressure;Samples;Min_cycle;Max_cycle;Signal;HPM_P1;HPM_P2
2022/01/06 00:02:19;;;;;;;;;;;;;;;1.06;100.00;101565.25;4989334;28;19918;-74
2022/01/06 00:04:44;;;;;;;;;;;;;;;1.03;100.00;101568.44;4988880;28;19921;-74
2022/01/06 00:07:10;;;;;;;;;;;;;;;1.03;100.00;101575.13;4987027;28;19928;-75
2022/01/06 00:09:35;;;;;;;;;;;;;;;1.01;100.00;101580.09;4973347;28;20403;-73
2022/01/06 00:12:01;;;;;;;;;;;;;;;0.99;100.00;101580.75;4989569;28;20393;-74
2022/01/06 00:17:38;;;;;;;;;;;;;;;0.91;100.00;101581.78;4988105;28;20519;-74
2022/01/06 00:25:32;;;;;;;;;;;;;;;0.78;100.00;101588.41;4989519;28;19936;-73
2022/01/06 00:27:57;;;;;;;;;;;;;;;0.74;100.00;101590.59;4986943;28;19929;-74
2022/01/06 00:30:23;;;;;;;;;;;;;;;0.70;100.00;101591.13;4988340;28;20008;-73
2022/01/06 00:32:48;;;;;;;;;;;;;;;0.65;100.00;101593.28;4988582;28;20857;-73
2022/01/06 00:35:13;;;;;;;;;;;;;;;0.64;100.00;101593.16;4988671;28;19964;-72
2022/01/06 00:37:38;;;;;;;;;;;;;;;0.64;100.00;101600.75;4988147;28;19930;-73
2022/01/06 00:40:04;;;;;;;;;;;;;;;0.60;100.00;101607.22;4988909;28;20695;-74
2022/01/06 00:42:29;;;;;;;;;;;;;;;0.57;100.00;101611.16;4988884;28;19960;-74
2022/01/06 00:44:55;;;;;;;;;;;;;;;0.54;100.00;101610.13;4989893;28;19925;-73
2022/01/06 00:47:20;;;;;;;;;;;;;;;0.56;100.00;101611.94;4988391;28;19972;-72
2022/01/06 00:49:46;;;;;;;;;;;;;;;0.58;100.00;101616.34;4969334;28;19921;-72
2022/01/06 00:52:11;;;;;;;;;;;;;;;0.59;100.00;101609.63;4990372;28;19926;-73
2022/01/06 00:54:36;;;;;;;;;;;;;;;0.60;100.00;101609.75;4988342;28;20276;-73
2022/01/06 00:57:02;;;;;;;;;;;;;;;0.69;100.00;101615.53;4985535;28;20004;-74
2022/01/06 00:59:27;;;;;;;;;;;;;;;0.79;100.00;101609.56;4984673;28;20014;-74
2022/01/06 01:01:52;;;;;;;;;;;;;;;0.81;100.00;101608.03;4985686;28;20004;-74
2022/01/06 01:04:18;;;;;;;;;;;;;;;0.80;100.00;101612.22;4989157;28;19937;-74
2022/01/06 01:06:43;;;;;;;;;;;;;;;0.78;100.00;101607.78;4989413;28;20001;-74
2022/01/06 01:09:08;;;;;;;;;;;;;;;0.75;100.00;101612.63;4988545;28;20004;-73
2022/01/06 01:11:33;;;;;;;;;;;;;;;0.71;100.00;101613.13;4988839;28;19921;-74
2022/01/06 01:14:16;;;;;;;;;;;;;;;0.73;100.00;101609.09;4986434;28;19933;-73
2022/01/06 01:16:41;;;;;;;;;;;;;;;0.71;100.00;101608.06;4987630;28;20292;-73
2022/01/06 01:19:10;;;;;;;;;;;;;;;0.71;100.00;101610.59;4988676;28;19976;-74
2022/01/06 01:21:35;;;;;;;;;;;;;;;0.66;100.00;101611.88;4987980;28;20008;-74
2022/01/06 01:24:01;;;;;;;;;;;;;;;0.63;100.00;101616.72;4986586;28;19925;-73
2022/01/06 01:26:26;;;;;;;;;;;;;;;0.60;100.00;101616.44;4971153;28;19926;-73
2022/01/06 01:28:52;;;;;;;;;;;;;;;0.55;100.00;101613.56;4985352;28;20372;-74
2022/01/06 01:33:44;;;;;;;;;;;;;;;0.43;100.00;101621.06;4988283;28;19988;-73
2022/01/06 01:36:13;;;;;;;;;;;;;;;0.41;100.00;101631.81;4996915;28;19926;-73
2022/01/06 01:38:39;;;;;;;;;;;;;;;0.34;100.00;101629.53;4986999;28;19971;-74
2022/01/06 01:41:05;;;;;;;;;;;;;;;0.28;100.00;101636.63;4988943;28;19918;-74
2022/01/06 01:43:30;;;;;;;;;;;;;;;0.27;100.00;101638.28;4990332;28;19918;-75
2022/01/06 01:45:58;;;;;;;;;;;;;;;0.27;100.00;101643.34;4989694;28;20427;-73
2022/01/06 01:48:31;;;;;;;;;;;;;;;0.32;100.00;101643.72;4973381;28;20276;-74
2022/01/06 01:50:57;;;;;;;;;;;;;;;0.27;100.00;101656.00;4988189;28;20395;-74
2022/01/06 01:53:22;;;;;;;;;;;;;;;0.25;100.00;101660.06;4988307;28;19929;-74
2022/01/06 01:55:47;;;;;;;;;;;;;;;0.19;100.00;101659.56;4988854;28;19977;-73
2022/01/06 01:58:13;;;;;;;;;;;;;;;0.14;100.00;101665.88;4993937;28;20016;-73
2022/01/06 02:00:39;;;;;;;;;;;;;;;0.12;100.00;101674.94;4988022;28;20581;-74
2022/01/06 02:03:04;;;;;;;;;;;;;;;0.09;100.00;101674.72;4994338;28;19944;-75
2022/01/06 02:05:29;;;;;;;;;;;;;;;0.04;100.00;101676.84;4991751;28;20269;-74
2022/01/06 02:07:56;;;;;;;;;;;;;;;0.01;100.00;101688.38;4976031;28;20277;-73
2022/01/06 02:10:21;;;;;;;;;;;;;;;-0.02;100.00;101679.75;4992704;28;20027;-73
2022/01/06 02:12:49;;;;;;;;;;;;;;;-0.08;100.00;101680.91;4992230;28;19917;-73
2022/01/06 02:15:15;;;;;;;;;;;;;;;-0.13;100.00;101683.03;4990765;28;19918;-74
2022/01/06 02:17:41;;;;;;;;;;;;;;;-0.12;100.00;101686.44;4973944;28;19926;-74
2022/01/06 02:20:11;;;;;;;;;;;;;;;-0.12;100.00;101691.50;4991284;28;20347;-74
2022/01/06 02:22:36;;;;;;;;;;;;;;;-0.12;100.00;101689.88;4992123;28;20531;-72
2022/01/06 02:25:09;;;;;;;;;;;;;;;-0.15;100.00;101692.13;4991961;28;19918;-73
2022/01/06 02:27:34;;;;;;;;;;;;;;;-0.18;100.00;101684.31;4991099;28;19922;-74
2022/01/06 02:30:00;;;;;;;;;;;;;;;-0.19;100.00;101689.22;4991368;28;19918;-74
2022/01/06 02:32:25;;;;;;;;;;;;;;;-0.21;100.00;101688.22;4993828;28;20426;-73
2022/01/06 02:34:51;;;;;;;;;;;;;;;-0.24;100.00;101691.38;4991379;28;19922;-74
2022/01/06 02:37:17;;;;;;;;;;;;;;;-0.23;100.00;101697.31;4993925;28;20017;-74
2022/01/06 02:39:42;;;;;;;;;;;;;;;-0.22;100.00;101701.63;4992488;28;20000;-73
2022/01/06 02:42:07;;;;;;;;;;;;;;;-0.21;100.00;101706.78;4990324;28;19918;-74
2022/01/06 02:44:34;;;;;;;;;;;;;;;-0.19;100.00;101696.81;4991736;28;20353;-74
2022/01/06 02:46:59;;;;;;;;;;;;;;;-0.22;100.00;101697.44;4992771;28;19928;-74
2022/01/06 02:49:25;;;;;;;;;;;;;;;-0.25;100.00;101691.22;4991012;28;20016;-73
2022/01/06 02:51:51;;;;;;;;;;;;;;;-0.29;100.00;101690.09;4991042;28;19993;-73
2022/01/06 02:54:19;;;;;;;;;;;;;;;-0.33;100.00;101694.00;4990489;28;19922;-73
2022/01/06 02:56:44;;;;;;;;;;;;;;;-0.39;100.00;101693.47;4989450;28;19918;-73
2022/01/06 02:59:10;;;;;;;;;;;;;;;-0.47;100.00;101694.47;4989236;28;19936;-74
2022/01/06 03:01:44;;;;;;;;;;;;;;;-0.53;100.00;101695.59;4988184;28;20300;-74
2022/01/06 03:04:10;;;;;;;;;;;;;;;-0.59;100.00;101699.38;4990808;28;19925;-72
2022/01/06 03:06:35;;;;;;;;;;;;;;;-0.62;100.00;101694.03;4991534;28;19932;-73
2022/01/06 03:09:01;;;;;;;;;;;;;;;-0.65;100.00;101697.97;4992449;28;19918;-73
2022/01/06 03:11:27;;;;;;;;;;;;;;;-0.68;100.00;101700.22;4993065;28;19917;-73
2022/01/06 03:13:53;;;;;;;;;;;;;;;-0.71;100.00;101698.31;4991454;28;19922;-74
2022/01/06 03:16:18;;;;;;;;;;;;;;;-0.72;100.00;101704.13;4991198;28;19918;-74
2022/01/06 03:18:43;;;;;;;;;;;;;;;-0.73;100.00;101714.97;4992401;28;19972;-76
2022/01/06 03:21:08;;;;;;;;;;;;;;;-0.75;100.00;101713.06;4990317;28;20463;-74
2022/01/06 03:23:34;;;;;;;;;;;;;;;-0.74;100.00;101723.28;4991571;28;19922;-73
2022/01/06 03:25:59;;;;;;;;;;;;;;;-0.77;100.00;101727.22;4988751;28;19934;-74
2022/01/06 03:28:24;;;;;;;;;;;;;;;-0.79;100.00;101723.66;4991709;28;19925;-74
2022/01/06 03:30:49;;;;;;;;;;;;;;;-0.80;100.00;101725.28;4990966;28;20385;-74
2022/01/06 03:33:15;;;;;;;;;;;;;;;-0.82;100.00;101731.84;4987603;28;19922;-75
2022/01/06 03:35:40;;;;;;;;;;;;;;;-0.77;100.00;101729.75;4989823;28;19922;-73
2022/01/06 03:38:05;;;;;;;;;;;;;;;-0.68;100.00;101722.94;4974719;28;20661;-72
2022/01/06 03:40:30;;;;;;;;;;;;;;;-0.53;100.00;101720.88;4990967;28;19925;-72
2022/01/06 03:42:56;;;;;;;;;;;;;;;-0.41;100.00;101702.59;4990454;28;19925;-73
2022/01/06 03:45:21;;;;;;;;;;;;;;;-0.29;100.00;101716.25;4991593;28;20870;-73
2022/01/06 03:47:46;;;;;;;;;;;;;;;-0.23;100.00;101718.44;4992394;28;19918;-73
2022/01/06 03:50:13;;;;;;;;;;;;;;;-0.18;100.00;101721.31;4991117;28;20340;-72
2022/01/06 03:52:38;;;;;;;;;;;;;;;-0.16;100.00;101723.25;4991898;28;19918;-74
2022/01/06 03:55:09;;;;;;;;;;;;;;;-0.12;100.00;101720.22;4989880;28;19922;-74
2022/01/06 03:57:34;;;;;;;;;;;;;;;-0.07;100.00;101718.94;4989848;28;20019;-76
2022/01/06 04:00:00;;;;;;;;;;;;;;;-0.06;100.00;101720.75;4991109;28;20020;-74
2022/01/06 04:02:25;;;;;;;;;;;;;;;-0.04;100.00;101726.78;4989734;28;19921;-74
2022/01/06 04:04:50;;;;;;;;;;;;;;;-0.09;100.00;101720.47;4989871;28;19979;-74
2022/01/06 04:07:16;;;;;;;;;;;;;;;-0.14;100.00;101721.72;4990262;28;19922;-74
2022/01/06 04:09:41;;;;;;;;;;;;;;;-0.22;100.00;101722.72;4989434;28;19971;-74
2022/01/06 04:12:10;;;;;;;;;;;;;;;-0.30;100.00;101729.66;4985928;28;20296;-74
2022/01/06 04:14:35;;;;;;;;;;;;;;;-0.39;100.00;101736.44;4967268;28;19922;-74
2022/01/06 04:17:01;;;;;;;;;;;;;;;-0.44;100.00;101731.75;4990420;28;19976;-74
2022/01/06 04:19:26;;;;;;;;;;;;;;;-0.46;100.00;101735.78;4990372;28;19921;-73
2022/01/06 04:21:52;;;;;;;;;;;;;;;-0.50;100.00;101736.28;4990910;28;20331;-73
2022/01/06 04:24:17;;;;;;;;;;;;;;;-0.56;100.00;101754.31;4990715;28;20372;-74
2022/01/06 04:26:42;;;;;;;;;;;;;;;-0.61;100.00;101751.41;4990828;28;19926;-75
2022/01/06 04:29:08;;;;;;;;;;;;;;;-0.66;100.00;101747.59;4989284;28;19929;-74
2022/01/06 04:31:33;;;;;;;;;;;;;;;-0.69;100.00;101759.94;4990992;28;19925;-74
2022/01/06 04:33:58;;;;;;;;;;;;;;;-0.71;100.00;101748.84;4990206;28;19922;-73
2022/01/06 04:36:23;;;;;;;;;;;;;;;-0.67;100.00;101757.53;4985402;28;20045;-73
2022/01/06 04:38:49;;;;;;;;;;;;;;;-0.72;100.00;101742.00;4993599;28;20337;-73
2022/01/06 04:41:14;;;;;;;;;;;;;;;-0.76;100.00;101755.13;4989596;28;20013;-73
2022/01/06 04:43:39;;;;;;;;;;;;;;;-0.76;100.00;101760.16;4962487;28;19948;-73
2022/01/06 04:46:05;;;;;;;;;;;;;;;-0.76;100.00;101764.34;4970135;28;19980;-73
2022/01/06 04:48:30;;;;;;;;;;;;;;;-0.79;100.00;101757.38;4994051;28;19944;-72
2022/01/06 04:50:55;;;;;;;;;;;;;;;-0.79;100.00;101762.41;4991485;28;20365;-72
2022/01/06 04:53:20;;;;;;;;;;;;;;;-0.81;100.00;101767.34;4972869;28;20392;-73
2022/01/06 04:55:46;;;;;;;;;;;;;;;-0.84;100.00;101764.56;4989994;28;19922;-74
2022/01/06 04:58:11;;;;;;;;;;;;;;;-0.83;100.00;101768.84;4988933;28;20408;-76
2022/01/06 05:00:36;;;;;;;;;;;;;;;-0.88;100.00;101775.13;4990411;28;19918;-74
2022/01/06 05:03:01;;;;;;;;;;;;;;;-0.89;100.00;101772.47;4989510;28;20599;-76
2022/01/06 05:05:27;;;;;;;;;;;;;;;-0.88;100.00;101770.09;4972530;28;20501;-74
2022/01/06 05:07:52;;;;;;;;;;;;;;;-0.84;100.00;101779.72;4986559;28;19918;-74
2022/01/06 05:10:17;;;;;;;;;;;;;;;-0.87;100.00;101781.06;4989574;28;20372;-74
2022/01/06 05:12:43;;;;;;;;;;;;;;;-0.90;100.00;101784.22;4990541;28;19922;-74
2022/01/06 05:15:09;;;;;;;;;;;;;;;-0.94;100.00;101789.75;4988866;28;20687;-73
2022/01/06 05:17:35;;;;;;;;;;;;;;;-0.98;100.00;101795.25;4988941;28;19928;-74
2022/01/06 05:20:00;;;;;;;;;;;;;;;-1.01;100.00;101799.16;4987203;28;19914;-73
2022/01/06 05:22:26;;;;;;;;;;;;;;;-1.04;100.00;101798.88;4968573;28;19923;-73
2022/01/06 05:24:53;;;;;;;;;;;;;;;-1.05;100.00;101795.47;4972135;28;19933;-73
2022/01/06 05:27:19;;;;;;;;;;;;;;;-1.08;100.00;101805.31;4988376;28;20403;-73
2022/01/06 05:29:44;;;;;;;;;;;;;;;-1.10;100.00;101799.22;4991380;28;19949;-74
2022/01/06 05:32:09;;;;;;;;;;;;;;;-1.13;100.00;101799.84;4967140;28;19926;-74
2022/01/06 05:34:34;;;;;;;;;;;;;;;-1.18;100.00;101810.28;4969371;28;20040;-75
2022/01/06 05:37:00;;;;;;;;;;;;;;;-1.23;100.00;101817.41;4994860;28;19983;-74
2022/01/06 05:39:25;;;;;;;;;;;;;;;-1.27;100.00;101817.91;4976579;28;19924;-74
2022/01/06 05:41:50;;;;;;;;;;;;;;;-1.30;100.00;101816.75;4993898;28;20506;-74
2022/01/06 05:44:16;;;;;;;;;;;;;;;-1.29;100.00;101816.88;4993694;28;19953;-74
2022/01/06 05:46:41;;;;;;;;;;;;;;;-1.28;100.00;101823.69;4974567;28;19977;-76
2022/01/06 05:49:06;;;;;;;;;;;;;;;-1.32;100.00;101819.13;4992996;28;20365;-72
2022/01/06 05:51:31;;;;;;;;;;;;;;;-1.32;100.00;101821.66;4975419;28;19961;-73
2022/01/06 05:53:57;;;;;;;;;;;;;;;-1.32;100.00;101826.69;4996432;28;20321;-75
2022/01/06 05:56:22;;;;;;;;;;;;;;;-1.34;100.00;101830.69;4993171;28;19918;-74
2022/01/06 05:58:47;;;;;;;;;;;;;;;-1.33;100.00;101824.94;4973794;28;19976;-73
2022/01/06 06:01:13;;;;;;;;;;;;;;;-1.31;100.00;101832.63;4993066;28;19937;-73
2022/01/06 06:03:38;;;;;;;;;;;;;;;-1.33;100.00;101831.59;4975128;28;19930;-74
2022/01/06 06:06:03;;;;;;;;;;;;;;;-1.34;100.00;101838.25;4970201;28;19929;-75
2022/01/06 06:08:29;;;;;;;;;;;;;;;-1.31;100.00;101846.13;4988821;28;19921;-75
2022/01/06 06:10:54;;;;;;;;;;;;;;;-1.33;100.00;101847.63;4982878;28;19928;-74
2022/01/06 06:13:19;;;;;;;;;;;;;;;-1.35;100.00;101844.94;4988533;28;19925;-74
2022/01/06 06:15:44;;;;;;;;;;;;;;;-1.38;100.00;101843.81;4990046;28;19925;-75
2022/01/06 06:18:11;;;;;;;;;;;;;;;-1.37;100.00;101851.50;4992739;28;19980;-74
2022/01/06 06:20:37;;;;;;;;;;;;;;;-1.40;100.00;101861.31;4988527;28;19929;-74
2022/01/06 06:23:02;;;;;;;;;;;;;;;-1.43;100.00;101856.00;4991695;28;19918;-74
2022/01/06 06:25:28;;;;;;;;;;;;;;;-1.42;100.00;101857.75;4992241;28;19922;-74
2022/01/06 06:27:53;;;;;;;;;;;;;;;-1.45;100.00;101857.50;4975537;28;19930;-74
2022/01/06 06:30:18;;;;;;;;;;;;;;;-1.48;100.00;101861.34;4992354;28;20359;-74
2022/01/06 06:32:44;;;;;;;;;;;;;;;-1.50;100.00;101863.75;4973966;28;19922;-75
2022/01/06 06:35:09;;;;;;;;;;;;;;;-1.50;100.00;101863.75;4993665;28;19994;-75
2022/01/06 06:37:35;;;;;;;;;;;;;;;-1.50;100.00;101865.38;4990086;28;19933;-73
2022/01/06 06:40:00;;;;;;;;;;;;;;;-1.51;100.00;101866.13;4974853;28;20301;-73
2022/01/06 06:42:26;;;;;;;;;;;;;;;-1.52;100.00;101870.25;4993292;28;19928;-73
2022/01/06 06:44:51;;;;;;;;;;;;;;;-1.50;100.00;101875.47;4990869;28;19930;-73
2022/01/06 06:47:17;;;;;;;;;;;;;;;-1.45;100.00;101879.31;4992370;28;19940;-74
2022/01/06 06:49:42;;;;;;;;;;;;;;;-1.41;100.00;101878.81;4989902;28;19922;-75
2022/01/06 06:52:07;;;;;;;;;;;;;;;-1.39;100.00;101885.81;4987359;28;19929;-75
2022/01/06 06:54:33;;;;;;;;;;;;;;;-1.41;100.00;101886.41;4991357;28;19949;-76
2022/01/06 06:56:58;;;;;;;;;;;;;;;-1.43;100.00;101888.78;4990202;28;19922;-74
2022/01/06 06:59:23;;;;;;;;;;;;;;;-1.42;100.00;101887.16;4988786;28;20004;-74
2022/01/06 07:01:49;;;;;;;;;;;;;;;-1.44;100.00;101888.66;4991807;28;19925;-74
2022/01/06 07:04:14;;;;;;;;;;;;;;;-1.46;100.00;101896.06;4990300;28;21656;-73
2022/01/06 07:06:39;;;;;;;;;;;;;;;-1.42;100.00;101893.06;4990209;28;19930;-74
2022/01/06 07:09:04;;;;;;;;;;;;;;;-1.37;100.00;101898.56;4974353;28;19949;-74
2022/01/06 07:11:30;;;;;;;;;;;;;;;-1.38;100.00;101900.19;4990898;28;19971;-76
2022/01/06 07:13:56;;;;;;;;;;;;;;;-1.43;100.00;101910.59;4991661;28;19922;-74
2022/01/06 07:16:21;;;;;;;;;;;;;;;-1.48;100.00;101902.59;4990589;28;19937;-75
2022/01/06 07:18:46;;;;;;;;;;;;;;;-1.52;100.00;101910.63;4990879;28;20388;-75
2022/01/06 07:21:11;;;;;;;;;;;;;;;-1.53;100.00;101913.91;4991400;28;20300;-74
2022/01/06 07:23:37;;;;;;;;;;;;;;;-1.49;100.00;101922.66;4991644;28;19926;-74
2022/01/06 07:26:02;;;;;;;;;;;;;;;-1.51;100.00;101926.69;4991705;28;19933;-76
2022/01/06 07:28:27;;;;;;;;;;;;;;;-1.53;100.00;101929.03;4990932;28;20335;-75
2022/01/06 07:30:53;;;;;;;;;;;;;;;-1.57;100.00;101937.09;4987747;28;19925;-75
2022/01/06 07:33:18;;;;;;;;;;;;;;;-1.57;100.00;101933.69;4994157;28;19997;-75
2022/01/06 07:35:43;;;;;;;;;;;;;;;-1.55;100.00;101938.09;4988367;28;19928;-74
2022/01/06 07:38:09;;;;;;;;;;;;;;;-1.57;100.00;101936.19;4975216;28;20404;-74
2022/01/06 07:40:34;;;;;;;;;;;;;;;-1.58;100.00;101937.81;4992990;28;19922;-74
2022/01/06 07:42:59;;;;;;;;;;;;;;;-1.60;100.00;101941.81;4991024;28;19945;-74
2022/01/06 07:45:25;;;;;;;;;;;;;;;-1.57;100.00;101941.25;4990798;28;19928;-74
2022/01/06 07:47:58;;;;;;;;;;;;;;;-1.58;100.00;101940.31;4974020;28;20027;-74
2022/01/06 07:50:26;;;;;;;;;;;;;;;-1.59;100.00;101930.97;4992306;28;19918;-73
2022/01/06 07:52:51;;;;;;;;;;;;;;;-1.60;100.00;101935.88;4989058;28;19953;-75
2022/01/06 07:55:16;;;;;;;;;;;;;;;-1.60;100.00;101939.31;4973385;28;19965;-75
2022/01/06 07:57:42;;;;;;;;;;;;;;;-1.60;100.00;101936.78;4992226;28;19918;-75
2022/01/06 08:00:07;;;;;;;;;;;;;;;-1.58;100.00;101937.81;4989393;28;20582;-75
2022/01/06 08:02:32;;;;;;;;;;;;;;;-1.54;100.00;101941.50;4988762;28;19917;-75
2022/01/06 08:04:58;;;;;;;;;;;;;;;-1.52;100.00;101942.53;4989445;28;19933;-73
2022/01/06 08:07:23;;;;;;;;;;;;;;;-1.48;100.00;101944.59;4979247;28;20295;-75
2022/01/06 08:09:48;;;;;;;;;;;;;;;-1.45;100.00;101942.38;4991252;28;19925;-74
2022/01/06 08:12:14;;;;;;;;;;;;;;;-1.42;100.00;101945.16;4990384;28;19936;-74
2022/01/06 08:14:39;;;;;;;;;;;;;;;-1.39;100.00;101948.88;4991627;28;20000;-74
2022/01/06 08:17:04;;;;;;;;;;;;;;;-1.32;100.00;101949.44;4967808;28;20340;-74
2022/01/06 08:19:30;;;;;;;;;;;;;;;-1.28;100.00;101952.38;4992919;28;19926;-74
2022/01/06 08:21:56;;;;;;;;;;;;;;;-1.21;100.00;101949.69;4974697;28;20434;-74
2022/01/06 08:24:21;;;;;;;;;;;;;;;-1.17;100.00;101945.81;4990851;28;19918;-74
2022/01/06 08:26:46;;;;;;;;;;;;;;;-1.14;100.00;101946.97;4988406;28;19922;-74
2022/01/06 08:29:12;;;;;;;;;;;;;;;-1.08;100.00;101959.28;4988226;28;19922;-75
2022/01/06 08:31:37;;;;;;;;;;;;;;;-1.04;100.00;101957.91;4995865;28;19918;-73
2022/01/06 08:34:03;;;;;;;;;;;;;;;-0.99;100.00;101957.59;4991709;28;19917;-73
2022/01/06 08:36:28;;;;;;;;;;;;;;;-0.93;100.00;101958.13;4971297;28;19926;-75
2022/01/06 08:38:56;;;;;;;;;;;;;;;-0.86;100.00;101964.63;4970480;28;19928;-71
2022/01/06 08:41:22;;;;;;;;;;;;;;;-0.79;100.00;101963.56;4975305;28;20381;-71
2022/01/06 08:43:47;;;;;;;;;;;;;;;-0.71;100.00;101967.69;4988091;28;19971;-71
2022/01/06 08:46:13;;;;;;;;;;;;;;;-0.63;100.00;101969.25;4994441;28;20379;-71
2022/01/06 08:48:38;;;;;;;;;;;;;;;-0.53;100.00;101971.88;4989761;28;19918;-71
2022/01/06 08:51:03;;;;;;;;;;;;;;;-0.42;100.00;101971.19;4989446;28;19976;-71
2022/01/06 08:53:28;;;;;;;;;;;;;;;-0.31;100.00;101975.53;4984302;28;19918;-71
2022/01/06 08:55:54;;;;;;;;;;;;;;;-0.20;100.00;101973.97;4991042;28;19949;-71
2022/01/06 08:58:19;;;;;;;;;;;;;;;-0.10;100.00;101968.97;4994400;28;19922;-71
2022/01/06 09:00:46;;;;;;;;;;;;;;;0.01;100.00;101971.56;4992905;28;20253;-71
2022/01/06 09:03:11;;;;;;;;;;;;;;;0.13;100.00;101971.00;4986800;28;19922;-70
2022/01/06 09:05:37;;;;;;;;;;;;;;;0.43;100.00;101976.94;4990716;28;20008;-72
2022/01/06 09:08:02;;;;;;;;;;;;;;;0.96;100.00;101978.06;4987383;28;19929;-73
2022/01/06 09:10:33;;;;;;;;;;;;;;;1.46;100.00;101989.03;4990587;28;19917;-73
2022/01/06 09:12:59;;;;;;;;;;;;;;;1.86;100.00;101985.53;4990568;28;19925;-73
2022/01/06 09:15:24;;;;;;;;;;;;;;;2.28;100.00;101980.47;4984354;28;20288;-72
2022/01/06 09:17:49;;;;;;;;;;;;;;;2.73;100.00;101984.84;4968628;28;19926;-72
2022/01/06 09:20:15;;;;;;;;;;;;;;;3.63;100.00;101989.09;4987414;28;19925;-72
2022/01/06 09:22:41;;;;;;;;;;;;;;;4.52;100.00;101978.56;4992596;28;19918;-72
2022/01/06 09:25:07;;;;;;;;;;;;;;;5.63;100.00;101977.59;4993821;28;19922;-75
2022/01/06 09:27:32;;;;;;;;;;;;;;;6.58;100.00;101985.38;4992349;28;19918;-74
2022/01/06 09:29:58;;;;;;;;;;;;;;;7.25;100.00;101985.22;4970934;28;20348;-75
2022/01/06 09:32:23;;;;;;;;;;;;;;;8.01;95.16;101991.34;4984574;28;19992;-76
2022/01/06 09:34:48;;;;;;;;;;;;;;;8.68;98.99;101985.63;4987423;28;19945;-74
2022/01/06 09:37:14;;;;;;;;;;;;;;;9.33;98.17;101991.59;4982524;28;19926;-77
2022/01/06 09:39:40;;;;;;;;;;;;;;;10.03;93.24;101991.66;4987704;28;19968;-74
2022/01/06 09:42:05;;;;;;;;;;;;;;;10.42;81.53;101999.53;4987760;28;19991;-74
2022/01/06 09:44:31;;;;;;;;;;;;;;;10.71;85.49;101999.19;4988053;28;19971;-74
2022/01/06 09:46:56;;;;;;;;;;;;;;;11.01;80.95;102001.38;4988921;28;19972;-73
2022/01/06 09:49:22;;;;;;;;;;;;;;;11.34;86.20;102003.63;4991442;28;20470;-73
2022/01/06 09:51:47;;;;;;;;;;;;;;;11.86;83.53;101999.03;4989877;28;19922;-73
2022/01/06 09:54:13;;;;;;;;;;;;;;;12.33;82.88;102011.25;4986202;28;19980;-74
2022/01/06 09:56:38;;;;;;;;;;;;;;;12.79;81.58;102004.34;4983763;28;19957;-73
2022/01/06 09:59:03;;;;;;;;;;;;;;;13.11;77.09;101997.81;4991845;28;19937;-77
2022/01/06 10:01:28;;;;;;;;;;;;;;;13.37;76.52;101994.44;4983365;28;19925;-74
2022/01/06 10:03:54;;;;;;;;;;;;;;;13.74;76.88;101994.81;4987160;28;19934;-74
2022/01/06 10:06:26;;;;;;;;;;;;;;;13.87;69.28;101995.25;4985828;28;19933;-74
2022/01/06 10:08:56;;;;;;;;;;;;;;;14.01;72.38;101998.28;4984353;28;20005;-75
2022/01/06 10:11:25;;;;;;;;;;;;;;;14.35;74.06;101997.66;4983258;28;19984;-75
2022/01/06 10:13:56;;;;;;;;;;;;;;;14.78;70.09;101995.50;4988607;28;19975;-73
2022/01/06 10:16:22;;;;;;;;;;;;;;;15.06;70.40;102002.34;4988929;28;19918;-72
2022/01/06 10:19:06;;;;;;;;;;;;;;;15.55;69.80;101996.75;4991788;28;19925;-72
2022/01/06 10:21:33;;;;;;;;;;;;;;;16.12;63.56;101986.06;4989785;28;20368;-72
2022/01/06 10:23:59;;;;;;;;;;;;;;;16.31;67.83;101984.75;5000357;28;19920;-70
2022/01/06 10:26:24;;;;;;;;;;;;;;;16.84;66.78;101988.53;4990894;28;19922;-72
2022/01/06 10:28:52;;;;;;;;;;;;;;;17.26;65.49;101985.00;4994167;28;19924;-72
2022/01/06 10:31:22;;;;;;;;;;;;;;;17.69;60.02;101980.56;4987578;28;19918;-70
2022/01/06 10:33:47;;;;;;;;;;;;;;;17.70;59.09;101971.91;4992714;28;19937;-71
2022/01/06 10:36:14;;;;;;;;;;;;;;;17.47;60.91;101975.84;4987621;28;19980;-72
2022/01/06 10:38:39;;;;;;;;;;;;;;;17.10;60.87;101976.03;4992577;28;19918;-71
2022/01/06 10:41:12;;;;;;;;;;;;;;;17.22;60.07;101974.53;4991367;28;19929;-72
2022/01/06 10:43:38;;;;;;;;;;;;;;;16.17;61.17;101980.97;4989586;28;19914;-71
2022/01/06 10:46:03;;;;;;;;;;;;;;;14.91;57.90;101982.94;4990619;28;19929;-72
2022/01/06 10:48:29;;;;;;;;;;;;;;;13.83;63.08;101985.69;4997331;28;19975;-71
2022/01/06 10:50:58;;;;;;;;;;;;;;;13.06;59.39;101982.13;4993077;28;20292;-71
2022/01/06 10:53:24;;;;;;;;;;;;;;;12.20;59.07;101988.38;4992432;28;19922;-70
2022/01/06 10:55:49;;;;;;;;;;;;;;;12.21;64.65;101984.97;4992736;28;20246;-71
2022/01/06 10:58:22;;;;;;;;;;;;;;;12.03;65.18;101979.97;4992991;28;20045;-71
2022/01/06 11:00:48;;;;;;;;;;;;;;;11.36;66.52;101981.44;4993466;28;19925;-71
2022/01/06 11:03:15;;;;;;;;;;;;;;;10.83;67.65;101982.53;4993008;28;20412;-72
2022/01/06 11:05:42;;;;;;;;;;;;;;;11.00;69.22;101986.75;4982679;28;19976;-71
2022/01/06 11:08:09;;;;;;;;;;;;;;;12.79;65.93;101970.81;4991415;28;19917;-74
2022/01/06 11:10:45;;;;;;;;;;;;;;;14.52;61.52;101968.84;4990051;28;19924;-77
2022/01/06 11:13:12;;;;;;;;;;;;;;;15.95;61.96;101961.44;4993238;28;19925;-71
2022/01/06 11:15:37;;;;;;;;;;;;;;;16.98;57.19;101960.22;4991897;28;19918;-72
2022/01/06 11:18:04;;;;;;;;;;;;;;;17.87;58.05;101961.81;4993185;28;20364;-75
2022/01/06 11:20:30;;;;;;;;;;;;;;;18.61;51.36;101954.16;4987875;28;19983;-73
2022/01/06 11:22:56;;;;;;;;;;;;;;;19.03;55.65;101952.94;4991958;28;20324;-71
2022/01/06 11:25:35;;;;;;;;;;;;;;;19.50;46.41;101949.91;4991815;28;19941;-70
2022/01/06 11:28:02;;;;;;;;;;;;;;;19.58;47.81;101948.25;4992006;28;20377;-71
2022/01/06 11:30:37;;;;;;;;;;;;;;;19.53;51.98;101949.94;4994409;28;19925;-70
2022/01/06 11:33:03;;;;;;;;;;;;;;;19.67;45.22;101952.69;4988009;28;20016;-70
2022/01/06 11:35:28;;;;;;;;;;;;;;;19.56;51.20;101956.06;4992415;28;20021;-72
2022/01/06 11:37:56;;;;;;;;;;;;;;;19.44;49.97;101952.47;4992552;28;20242;-71
2022/01/06 11:40:31;;;;;;;;;;;;;;;18.18;51.45;101957.94;4991079;28;20301;-71
2022/01/06 11:42:57;;;;;;;;;;;;;;;16.19;49.35;101961.13;4991782;28;19918;-70
2022/01/06 11:45:22;;;;;;;;;;;;;;;14.60;54.87;101960.47;4989235;28;20012;-71
2022/01/06 11:48:08;;;;;;;;;;;;;;;13.30;60.14;101963.19;4987205;28;19914;-70
2022/01/06 11:50:38;;;;;;;;;;;;;;;12.18;62.87;101966.78;4989689;28;19922;-76
2022/01/06 11:53:04;;;;;;;;;;;;;;;11.26;59.96;101963.00;4990878;28;20277;-74
2022/01/06 11:55:40;;;;;;;;;;;;;;;10.53;63.41;101969.16;4991322;28;19929;-71
2022/01/06 11:58:08;;;;;;;;;;;;;;;9.86;63.57;101964.28;4991743;28;19917;-72
2022/01/06 12:00:35;;;;;;;;;;;;;;;9.47;67.55;101961.53;4987086;28;19921;-71
2022/01/06 12:03:00;;;;;;;;;;;;;;;9.06;66.46;101965.41;4990448;28;19932;-71
2022/01/06 12:05:26;;;;;;;;;;;;;;;8.76;67.30;101971.53;4991302;28;20288;-71
2022/01/06 12:07:53;;;;;;;;;;;;;;;8.64;68.63;101973.44;4986588;28;20372;-72
2022/01/06 12:10:20;;;;;;;;;;;;;;;8.45;69.93;101969.88;4988236;28;19976;-72
2022/01/06 12:12:47;;;;;;;;;;;;;;;8.42;69.84;101968.81;4984522;28;19933;-71
2022/01/06 12:15:14;;;;;;;;;;;;;;;8.09;69.64;101973.81;4990285;28;19921;-71
2022/01/06 12:17:52;;;;;;;;;;;;;;;8.13;71.27;101964.63;4983305;28;19949;-71
2022/01/06 12:20:27;;;;;;;;;;;;;;;8.04;72.11;101965.00;4989464;28;19917;-75
2022/01/06 12:22:53;;;;;;;;;;;;;;;7.95;71.56;101956.81;4991476;28;19917;-71
2022/01/06 12:25:26;;;;;;;;;;;;;;;7.90;72.15;101951.44;4988530;28;19929;-71
2022/01/06 12:27:53;;;;;;;;;;;;;;;7.81;72.11;101950.91;4986906;28;19984;-71
2022/01/06 12:30:20;;;;;;;;;;;;;;;7.58;72.25;101951.25;4988980;28;19973;-70
2022/01/06 12:33:02;;;;;;;;;;;;;;;7.46;72.99;101951.44;4989810;28;19948;-70
2022/01/06 12:35:54;;;;;;;;;;;;;;;7.36;73.49;101944.03;4989460;28;20448;-75
2022/01/06 12:38:30;;;;;;;;;;;;;;;7.30;74.32;101943.69;4987787;28;20274;-74
2022/01/06 12:40:55;;;;;;;;;;;;;;;7.25;74.66;101946.84;4987583;28;19921;-74